createdAt,value
2022-09-15T00:01:08.496Z,23.81
2022-09-15T00:03:34.943Z,23.80
2022-09-15T00:06:01.749Z,23.76
2022-09-15T00:08:28.311Z,23.78
2022-09-15T00:11:33.150Z,23.81
2022-09-15T00:14:00.786Z,23.83
2022-09-15T00:16:28.377Z,23.79
2022-09-15T00:18:55.018Z,23.62
2022-09-15T00:21:22.870Z,23.62
2022-09-15T00:23:49.752Z,23.64
2022-09-15T00:26:24.058Z,23.65
2022-09-15T00:29:18.950Z,23.70
2022-09-15T00:31:51.762Z,23.71
2022-09-15T00:34:18.453Z,23.72
2022-09-15T00:36:44.881Z,23.72
2022-09-15T00:39:12.041Z,23.66
2022-09-15T00:41:39.654Z,23.69
2022-09-15T00:44:18.434Z,23.68
2022-09-15T00:47:15.218Z,23.65
2022-09-15T00:49:40.522Z,23.60
2022-09-15T00:52:39.431Z,23.56
2022-09-15T00:55:11.901Z,23.57
2022-09-15T00:57:41.074Z,23.55
2022-09-15T01:00:09.966Z,23.52
2022-09-15T01:03:23.318Z,23.48
2022-09-15T01:05:56.852Z,23.45
2022-09-15T01:08:47.923Z,23.53
2022-09-15T01:11:16.986Z,23.54
2022-09-15T01:13:44.361Z,23.51
2022-09-15T01:16:13.576Z,23.51
2022-09-15T01:18:55.126Z,23.51
2022-09-15T01:21:45.553Z,23.56
2022-09-15T01:24:22.531Z,23.57
2022-09-15T01:27:18.436Z,23.60
2022-09-15T01:30:04.047Z,23.61
2022-09-15T01:32:58.587Z,23.59
2022-09-15T01:35:34.573Z,23.59
2022-09-15T01:41:17.765Z,23.57
2022-09-15T01:43:50.345Z,23.53
2022-09-15T01:46:19.958Z,23.58
2022-09-15T01:48:47.485Z,23.52
2022-09-15T01:51:14.331Z,23.49
2022-09-15T01:53:41.102Z,23.47
2022-09-15T01:56:12.925Z,23.47
2022-09-15T01:58:40.662Z,23.50
2022-09-15T02:01:14.809Z,23.52
2022-09-15T02:03:44.694Z,23.50
2022-09-15T02:06:15.843Z,23.48
2022-09-15T02:08:42.807Z,23.49
2022-09-15T02:11:31.650Z,23.49
2022-09-15T02:14:23.053Z,23.50
2022-09-15T02:16:50.714Z,23.46
2022-09-15T02:19:20.295Z,23.40
2022-09-15T02:21:46.690Z,23.44
2022-09-15T02:24:18.607Z,23.47
2022-09-15T02:26:47.121Z,23.48
2022-09-15T02:29:23.828Z,23.48
2022-09-15T02:31:52.694Z,23.46
2022-09-15T02:34:21.988Z,23.39
2022-09-15T02:36:50.011Z,23.33
2022-09-15T02:39:19.520Z,23.33
2022-09-15T02:41:46.134Z,23.37
2022-09-15T02:44:31.089Z,23.44
2022-09-15T02:47:09.668Z,23.47
2022-09-15T02:49:54.721Z,23.47
2022-09-15T02:52:21.142Z,23.45
2022-09-15T02:54:48.090Z,23.39
2022-09-15T02:57:14.585Z,23.38
2022-09-15T02:59:59.589Z,23.40
2022-09-15T03:02:27.146Z,23.41
2022-09-15T03:05:09.553Z,23.36
2022-09-15T03:07:37.553Z,23.40
2022-09-15T03:10:04.985Z,23.32
2022-09-15T03:12:31.415Z,23.18
2022-09-15T03:14:57.802Z,23.24
2022-09-15T03:17:24.269Z,23.24
2022-09-15T03:20:38.353Z,23.22
2022-09-15T03:23:23.256Z,23.25
2022-09-15T03:25:49.660Z,23.21
2022-09-15T03:28:16.140Z,23.24
2022-09-15T03:30:42.520Z,23.27
2022-09-15T03:33:09.169Z,23.27
2022-09-15T03:35:35.598Z,23.29
2022-09-15T03:38:08.880Z,23.26
2022-09-15T03:40:36.143Z,23.22
2022-09-15T03:43:02.568Z,23.24
2022-09-15T03:45:29.086Z,23.26
2022-09-15T03:47:55.680Z,23.28
2022-09-15T03:50:22.122Z,23.28
2022-09-15T03:52:48.602Z,23.27
2022-09-15T03:55:39.953Z,23.29
2022-09-15T03:58:19.108Z,23.31
2022-09-15T04:00:45.920Z,23.30
2022-09-15T04:03:12.599Z,23.30
2022-09-15T04:05:39.011Z,23.31
2022-09-15T04:08:05.436Z,23.30
2022-09-15T04:10:32.046Z,23.30
2022-09-15T04:13:04.393Z,23.29
2022-09-15T04:15:30.814Z,23.29
2022-09-15T04:17:57.396Z,23.27
2022-09-15T04:20:24.071Z,23.24
2022-09-15T04:22:50.541Z,23.27
2022-09-15T04:25:17.117Z,23.24
2022-09-15T04:27:43.555Z,23.23
2022-09-15T04:30:31.772Z,23.19
2022-09-15T04:33:08.271Z,23.18
2022-09-15T04:35:34.683Z,23.19
2022-09-15T04:38:01.143Z,23.18
2022-09-15T04:40:27.580Z,23.18
2022-09-15T04:42:54.007Z,23.08
2022-09-15T04:45:20.402Z,23.09
2022-09-15T04:47:58.853Z,23.08
2022-09-15T04:50:25.638Z,23.09
2022-09-15T04:52:52.730Z,22.99
2022-09-15T04:55:19.431Z,22.95
2022-09-15T04:57:48.040Z,22.90
2022-09-15T05:00:14.730Z,23.07
2022-09-15T05:02:50.248Z,23.00
2022-09-15T05:05:28.912Z,23.04
2022-09-15T05:08:08.236Z,23.06
2022-09-15T05:10:35.016Z,23.00
2022-09-15T05:13:01.468Z,23.08
2022-09-15T05:15:27.853Z,23.00
2022-09-15T05:17:54.245Z,23.07
2022-09-15T05:20:20.779Z,22.91
2022-09-15T05:22:47.302Z,22.99
2022-09-15T05:25:13.797Z,23.06
2022-09-15T05:27:40.632Z,23.00
2022-09-15T05:30:35.156Z,23.08
2022-09-15T05:32:54.067Z,23.16
2022-09-15T05:35:20.526Z,23.21
2022-09-15T05:37:47.018Z,23.22
2022-09-15T05:40:13.506Z,23.30
2022-09-15T05:42:40.455Z,23.34
2022-09-15T05:45:07.599Z,23.34
2022-09-15T05:47:34.088Z,23.33
2022-09-15T05:50:00.542Z,23.35
2022-09-15T05:52:27.060Z,23.43
2022-09-15T05:54:58.315Z,23.44
2022-09-15T05:57:25.474Z,23.47
2022-09-15T05:59:51.929Z,23.49
2022-09-15T06:02:18.406Z,23.51
2022-09-15T06:04:44.871Z,23.53
2022-09-15T06:07:11.291Z,23.59
2022-09-15T06:09:38.160Z,23.62
2022-09-15T06:12:04.952Z,23.62
2022-09-15T06:14:31.376Z,23.72
2022-09-15T06:16:57.817Z,23.78
2022-09-15T06:19:24.233Z,23.84
2022-09-15T06:21:51.083Z,23.89
2022-09-15T06:24:17.522Z,23.96
2022-09-15T06:26:44.056Z,24.00
2022-09-15T06:29:13.518Z,24.04
2022-09-15T06:31:40.701Z,24.05
2022-09-15T06:34:08.655Z,24.14
2022-09-15T06:36:50.495Z,24.20
2022-09-15T06:39:16.974Z,24.22
2022-09-15T06:42:01.402Z,24.24
2022-09-15T06:44:29.062Z,24.23
2022-09-15T06:46:55.496Z,24.27
2022-09-15T06:49:21.959Z,24.32
2022-09-15T06:51:48.429Z,24.30
2022-09-15T06:54:35.953Z,24.31
2022-09-15T06:57:14.904Z,24.38
2022-09-15T06:59:41.495Z,24.36
2022-09-15T07:02:09.359Z,24.37
2022-09-15T07:04:38.740Z,24.44
2022-09-15T07:07:05.631Z,24.45
2022-09-15T07:09:32.037Z,24.47
2022-09-15T07:11:58.730Z,24.54
2022-09-15T07:14:25.211Z,24.62
2022-09-15T07:16:51.752Z,24.64
2022-09-15T07:19:18.195Z,24.58
2022-09-15T07:21:44.582Z,24.63
2022-09-15T07:24:11.084Z,24.65
2022-09-15T07:26:37.841Z,24.69
2022-09-15T07:29:05.837Z,24.69
2022-09-15T07:31:33.546Z,24.73
2022-09-15T07:34:00.912Z,24.83
2022-09-15T07:36:27.556Z,24.89
2022-09-15T07:38:54.047Z,24.94
2022-09-15T07:41:24.915Z,25.04
2022-09-15T07:43:52.486Z,25.06
2022-09-15T07:46:19.573Z,25.15
2022-09-15T07:48:47.304Z,25.25
2022-09-15T07:51:14.371Z,25.10
2022-09-15T07:53:41.274Z,25.24
2022-09-15T07:56:08.067Z,25.31
2022-09-15T07:58:34.770Z,25.47
2022-09-15T08:01:05.313Z,25.41
2022-09-15T08:03:32.107Z,25.32
2022-09-15T08:06:02.436Z,25.38
2022-09-15T08:08:29.394Z,25.52
2022-09-15T08:10:57.082Z,25.56
2022-09-15T08:13:24.351Z,25.58
2022-09-15T08:15:50.941Z,25.61
2022-09-15T08:18:17.490Z,25.67
2022-09-15T08:20:43.999Z,25.64
2022-09-15T08:23:11.273Z,25.55
2022-09-15T08:25:38.419Z,25.77
2022-09-15T08:28:04.858Z,25.71
2022-09-15T08:30:31.271Z,25.96
2022-09-15T08:32:57.679Z,26.02
2022-09-15T08:35:24.146Z,26.13
2022-09-15T08:37:53.076Z,26.04
2022-09-15T08:40:22.152Z,26.19
2022-09-15T08:42:50.462Z,26.26
2022-09-15T08:45:20.575Z,26.23
2022-09-15T08:47:48.212Z,26.41
2022-09-15T08:50:23.050Z,26.53
2022-09-15T08:52:55.720Z,26.65
2022-09-15T08:55:32.807Z,26.73
2022-09-15T08:57:59.345Z,26.86
2022-09-15T09:00:26.435Z,26.99
2022-09-15T09:03:05.367Z,27.08
2022-09-15T09:05:36.902Z,27.20
2022-09-15T09:08:09.613Z,27.39
2022-09-15T09:10:45.361Z,27.44
2022-09-15T09:13:14.638Z,27.53
2022-09-15T09:15:58.342Z,27.60
2022-09-15T09:18:46.833Z,27.70
2022-09-15T09:21:13.881Z,27.68
2022-09-15T09:23:47.159Z,27.71
2022-09-15T09:34:54.314Z,28.06
2022-09-15T09:37:20.760Z,28.15
2022-09-15T09:39:48.075Z,28.14
2022-09-15T09:42:37.150Z,28.40
2022-09-15T09:45:04.953Z,28.44
2022-09-15T09:47:33.360Z,28.56
2022-09-15T09:49:59.914Z,28.57
2022-09-15T10:19:55.808Z,29.42
2022-09-15T10:22:31.408Z,29.34
2022-09-15T10:24:58.739Z,29.15
2022-09-15T10:27:32.602Z,29.48
2022-09-15T10:30:00.059Z,29.53
2022-09-15T10:32:28.466Z,28.95
2022-09-15T10:35:01.199Z,29.22
2022-09-15T10:37:40.798Z,29.37
2022-09-15T11:20:21.091Z,29.27
2022-09-15T11:23:26.239Z,29.22
2022-09-15T11:26:00.139Z,29.09
2022-09-15T11:28:34.310Z,29.00
2022-09-15T11:31:09.682Z,28.94
2022-09-15T11:33:50.081Z,28.95
2022-09-15T12:36:34.337Z,27.93
2022-09-15T12:39:02.125Z,28.02
2022-09-15T12:41:29.133Z,28.06
2022-09-15T12:43:57.295Z,27.91
2022-09-15T12:46:24.489Z,27.54
2022-09-15T12:48:51.583Z,27.66
2022-09-15T12:51:22.859Z,27.62
2022-09-15T12:53:49.288Z,27.62
2022-09-15T13:04:07.339Z,27.22
2022-09-15T13:06:34.648Z,26.38
2022-09-15T13:09:01.395Z,25.57
2022-09-15T13:11:34.780Z,24.88
2022-09-15T13:14:04.567Z,24.05
2022-09-15T13:16:40.048Z,24.22
2022-09-15T13:19:15.486Z,23.73
2022-09-15T13:21:43.752Z,23.29
2022-09-15T13:24:15.861Z,23.64
2022-09-15T13:48:48.113Z,23.73
2022-09-15T13:51:28.252Z,23.84
2022-09-15T13:53:54.690Z,23.87
2022-09-15T13:56:29.807Z,23.88
2022-09-15T13:59:04.540Z,23.90
2022-09-15T14:01:40.518Z,23.79
2022-09-15T14:04:13.175Z,23.65
2022-09-15T14:06:41.308Z,23.95
2022-09-15T14:11:43.706Z,24.22
2022-09-15T14:14:30.418Z,24.24
2022-09-15T14:16:57.130Z,24.28
2022-09-15T14:19:33.916Z,24.27
2022-09-15T14:22:18.997Z,24.11
2022-09-15T14:24:45.707Z,24.11
2022-09-15T14:27:24.043Z,24.12
2022-09-15T14:29:54.478Z,24.09
2022-09-15T14:32:21.417Z,24.21
2022-09-15T14:50:45.308Z,23.55
2022-09-15T14:53:19.905Z,22.87
2022-09-15T14:55:50.317Z,21.85
2022-09-15T14:58:22.767Z,21.20
2022-09-15T15:00:58.490Z,20.89
2022-09-15T15:03:43.616Z,21.10
2022-09-15T15:06:31.511Z,21.39
2022-09-15T15:36:50.473Z,21.57
2022-09-15T15:39:24.413Z,21.64
2022-09-15T15:42:00.325Z,21.65
2022-09-15T15:44:30.308Z,21.50
2022-09-15T15:47:03.656Z,21.55
2022-09-15T15:49:32.634Z,21.64
2022-09-15T15:57:38.130Z,21.72
2022-09-15T16:00:11.225Z,21.77
2022-09-15T16:05:13.440Z,21.65
2022-09-15T16:07:40.393Z,21.68
2022-09-15T16:10:08.236Z,21.72
2022-09-15T16:12:35.494Z,21.76
2022-09-15T16:15:02.862Z,21.82
2022-09-15T16:17:29.364Z,21.83
2022-09-15T16:19:56.071Z,21.86
2022-09-15T16:22:22.538Z,21.79
2022-09-15T16:24:49.001Z,21.64
2022-09-15T16:51:55.266Z,21.67
2022-09-15T16:54:22.723Z,21.64
2022-09-15T16:56:49.130Z,21.54
2022-09-15T16:59:15.541Z,21.57
2022-09-15T17:01:41.994Z,21.54
2022-09-15T17:04:14.543Z,21.53
2022-09-15T17:20:34.774Z,21.33
2022-09-15T17:23:16.030Z,21.22
2022-09-15T17:25:48.923Z,21.21
2022-09-15T17:28:15.326Z,21.28
2022-09-15T17:30:41.714Z,21.32
2022-09-15T17:33:12.196Z,21.38
2022-09-15T17:35:38.751Z,21.37
2022-09-15T17:38:05.680Z,21.40
2022-09-15T17:40:32.452Z,21.36
2022-09-15T17:42:59.306Z,21.31
2022-09-15T17:45:27.426Z,21.32
2022-09-15T17:47:54.097Z,21.33
2022-09-15T17:50:22.052Z,21.39
2022-09-15T17:52:48.681Z,21.40
2022-09-15T17:55:17.521Z,21.39
2022-09-15T17:57:44.219Z,21.39
2022-09-15T18:00:13.100Z,21.44
2022-09-15T18:02:41.135Z,21.39
2022-09-15T18:05:17.216Z,21.36
2022-09-15T18:07:43.712Z,21.34
2022-09-15T18:10:10.115Z,21.37
2022-09-15T18:12:36.529Z,21.38
2022-09-15T18:15:03.825Z,21.28
2022-09-15T18:17:30.220Z,21.33
2022-09-15T18:19:56.627Z,21.37
2022-09-15T18:22:23.391Z,21.21
2022-09-15T18:24:49.820Z,21.19
2022-09-15T18:27:16.232Z,21.19
2022-09-15T18:29:42.864Z,21.23
2022-09-15T18:32:09.350Z,21.20
2022-09-15T18:34:36.114Z,21.18
2022-09-15T18:37:02.634Z,21.19
2022-09-15T18:39:29.509Z,21.18
2022-09-15T18:41:55.961Z,21.18
2022-09-15T18:44:23.026Z,21.15
2022-09-15T18:46:49.450Z,21.11
2022-09-15T18:49:16.014Z,20.94
2022-09-15T18:51:57.556Z,20.92
2022-09-15T18:54:24.039Z,20.94
2022-09-15T18:56:51.436Z,20.96
2022-09-15T18:59:17.999Z,21.00
2022-09-15T19:01:44.992Z,20.93
2022-09-15T19:07:07.173Z,20.86
2022-09-15T19:09:33.695Z,20.83
2022-09-15T19:12:00.136Z,20.90
2022-09-15T19:14:29.827Z,20.41
2022-09-15T19:16:58.007Z,20.54
2022-09-15T19:19:25.371Z,20.49
2022-09-15T19:21:55.170Z,20.63
2022-09-15T19:24:21.612Z,20.71
2022-09-15T19:26:48.233Z,20.71
2022-09-15T19:29:15.599Z,20.81
2022-09-15T19:31:42.353Z,20.81
2022-09-15T19:34:08.913Z,20.74
2022-09-15T19:36:35.492Z,20.78
2022-09-15T19:39:03.461Z,20.73
2022-09-15T19:41:31.641Z,20.76
2022-09-15T19:46:33.258Z,20.70
2022-09-15T19:49:01.595Z,20.74
2022-09-15T19:51:28.142Z,20.76
2022-09-15T19:53:55.321Z,20.83
2022-09-15T19:56:23.464Z,20.79
2022-09-15T19:58:49.926Z,20.68
2022-09-15T20:01:16.657Z,20.50
2022-09-15T20:03:43.081Z,20.60
2022-09-15T20:06:09.817Z,20.65
2022-09-15T20:08:36.972Z,20.70
2022-09-15T20:24:47.427Z,20.75
2022-09-15T20:27:14.073Z,20.75
2022-09-15T20:29:40.469Z,20.76
2022-09-15T20:32:06.907Z,20.72
2022-09-15T20:34:33.311Z,20.77
2022-09-15T20:37:00.184Z,20.76
2022-09-15T20:39:26.617Z,20.77
2022-09-15T20:41:53.019Z,20.61
2022-09-15T20:44:19.435Z,20.64
2022-09-15T20:46:45.886Z,20.47
2022-09-15T20:49:12.625Z,20.46
2022-09-15T20:51:39.122Z,20.47
2022-09-15T20:56:40.755Z,20.52
2022-09-15T20:59:10.332Z,20.58
2022-09-15T21:01:37.514Z,20.62
2022-09-15T21:04:04.844Z,20.63
2022-09-15T21:06:31.600Z,20.67
2022-09-15T21:08:58.587Z,20.70
2022-09-15T21:11:26.571Z,20.69
2022-09-15T21:13:53.535Z,20.67
2022-09-15T21:16:21.550Z,20.75
2022-09-15T21:18:48.693Z,20.61
2022-09-15T21:21:25.489Z,20.64
2022-09-15T21:24:08.060Z,20.66
2022-09-15T21:29:16.252Z,20.66
2022-09-15T21:31:42.708Z,20.73
2022-09-15T21:34:09.144Z,20.65
2022-09-15T21:36:35.881Z,20.62
2022-09-15T23:09:23.343Z,20.14
2022-09-15T23:11:49.754Z,20.20
2022-09-15T23:14:17.697Z,19.84
2022-09-15T23:17:04.042Z,19.89
2022-09-15T23:19:30.430Z,19.83
2022-09-15T23:21:56.844Z,19.78
2022-09-15T23:58:05.160Z,19.29
